createdAt,value
2023-05-04T00:03:12.824Z,8.50
2023-05-04T00:07:15.838Z,8.70
2023-05-04T00:11:17.785Z,7.90
2023-05-04T00:15:19.912Z,7.90
2023-05-04T00:19:21.850Z,7.90
2023-05-04T00:23:23.776Z,8.70
2023-05-04T00:27:25.695Z,7.30
2023-05-04T00:31:28.423Z,8.10
2023-05-04T00:35:31.269Z,8.70
2023-05-04T00:39:34.778Z,6.70
2023-05-04T00:43:36.626Z,6.70
2023-05-04T00:47:39.041Z,7.40
2023-05-04T00:51:41.259Z,6.50
2023-05-04T00:55:43.099Z,7.30
2023-05-04T00:59:45.302Z,7.00
2023-05-04T01:03:49.162Z,7.10
2023-05-04T01:08:03.745Z,6.60
2023-05-04T01:12:25.643Z,6.80
2023-05-04T01:16:28.296Z,6.90
2023-05-04T01:20:30.549Z,6.10
2023-05-04T01:24:33.043Z,7.60
2023-05-04T01:28:57.723Z,6.80
2023-05-04T01:33:01.808Z,6.20
2023-05-04T01:37:04.294Z,5.30
2023-05-04T01:41:06.185Z,5.90
2023-05-04T01:45:08.901Z,5.40
2023-05-04T01:49:10.987Z,5.60
2023-05-04T01:53:12.912Z,6.10
2023-05-04T01:57:14.790Z,6.30
2023-05-04T02:01:17.202Z,6.10
2023-05-04T02:05:19.203Z,5.90
2023-05-04T02:09:21.148Z,5.70
2023-05-04T02:13:23.199Z,5.30
2023-05-04T02:17:25.272Z,5.30
2023-05-04T02:21:27.312Z,6.30
2023-05-04T02:25:29.260Z,5.00
2023-05-04T02:29:31.437Z,6.60
2023-05-04T02:33:33.300Z,5.60
2023-05-04T02:37:35.490Z,6.00
2023-05-04T02:41:38.777Z,6.10
2023-05-04T02:45:40.800Z,6.30
2023-05-04T02:49:42.912Z,5.90
2023-05-04T02:53:45.924Z,6.00
2023-05-04T02:57:47.841Z,5.90
2023-05-04T03:01:49.776Z,5.80
2023-05-04T03:05:51.760Z,6.10
2023-05-04T03:09:54.080Z,7.10
2023-05-04T03:13:56.019Z,6.40
2023-05-04T03:17:58.490Z,6.10
2023-05-04T03:22:00.513Z,6.10
2023-05-04T03:26:02.431Z,5.80
2023-05-04T03:30:06.115Z,7.50
2023-05-04T03:34:11.967Z,13.10
2023-05-04T03:38:14.016Z,17.70
2023-05-04T03:42:18.648Z,12.90
2023-05-04T03:46:22.238Z,9.40
2023-05-04T03:50:24.441Z,8.80
2023-05-04T03:54:26.427Z,7.90
2023-05-04T03:58:29.781Z,7.10
2023-05-04T04:02:33.613Z,9.80
2023-05-04T04:06:36.001Z,11.90
2023-05-04T04:10:37.974Z,9.40
2023-05-04T04:14:40.573Z,7.40
2023-05-04T04:18:42.465Z,6.60
2023-05-04T04:22:44.396Z,6.40
2023-05-04T04:26:46.431Z,6.90
2023-05-04T04:30:48.425Z,6.70
2023-05-04T04:34:50.400Z,6.70
2023-05-04T04:38:52.397Z,6.50
2023-05-04T04:42:54.287Z,6.30
2023-05-04T04:46:56.563Z,6.60
2023-05-04T04:50:58.600Z,7.20
2023-05-04T04:55:00.949Z,6.00
2023-05-04T04:59:03.019Z,6.40
2023-05-04T05:03:05.088Z,5.90
2023-05-04T05:07:10.117Z,6.00
2023-05-04T05:11:12.380Z,5.00
2023-05-04T05:15:14.448Z,4.70
2023-05-04T05:19:17.121Z,4.80
2023-05-04T05:23:19.285Z,5.10
2023-05-04T05:27:21.381Z,4.30
2023-05-04T05:31:23.523Z,4.50
2023-05-04T05:35:25.716Z,4.70
2023-05-04T05:39:28.399Z,4.60
2023-05-04T05:43:32.652Z,3.90
2023-05-04T05:47:34.627Z,4.00
2023-05-04T05:51:36.658Z,3.70
2023-05-04T05:55:38.941Z,2.40
2023-05-04T05:59:44.882Z,3.40
2023-05-04T06:03:46.896Z,2.60
2023-05-04T06:07:49.573Z,2.50
2023-05-04T06:11:53.368Z,1.90
2023-05-04T06:15:57.110Z,1.50
2023-05-04T06:19:59.266Z,1.40
2023-05-04T06:24:01.238Z,1.10
2023-05-04T06:28:03.497Z,1.50
2023-05-04T06:32:05.601Z,1.10
2023-05-04T06:36:07.801Z,1.20
2023-05-04T06:40:10.402Z,1.00
2023-05-04T06:44:12.585Z,1.00
2023-05-04T06:48:14.492Z,2.60
2023-05-04T06:52:16.526Z,1.00
2023-05-04T06:56:18.462Z,0.90
2023-05-04T07:00:20.509Z,1.20
2023-05-04T07:04:22.870Z,1.00
2023-05-04T07:08:24.890Z,1.00
2023-05-04T07:12:27.573Z,1.00
2023-05-04T07:16:29.584Z,1.10
2023-05-04T07:20:32.039Z,0.90
2023-05-04T07:24:34.156Z,0.90
2023-05-04T07:28:36.115Z,1.30
2023-05-04T07:32:38.002Z,1.10
2023-05-04T07:36:42.049Z,0.90
2023-05-04T07:40:45.443Z,0.90
2023-05-04T07:44:47.446Z,0.90
2023-05-04T07:48:49.348Z,1.20
2023-05-04T07:52:51.880Z,1.00
2023-05-04T07:56:54.143Z,1.00
2023-05-04T08:00:56.062Z,1.00
2023-05-04T08:04:58.162Z,1.70
2023-05-04T08:09:00.532Z,1.10
2023-05-04T08:13:04.273Z,1.00
2023-05-04T08:17:06.421Z,0.80
2023-05-04T08:21:08.391Z,1.10
2023-05-04T08:25:10.770Z,1.20
2023-05-04T08:29:12.765Z,1.20
2023-05-04T08:33:14.762Z,1.20
2023-05-04T08:37:16.717Z,1.00
2023-05-04T08:41:18.929Z,1.30
2023-05-04T08:45:21.990Z,1.40
2023-05-04T08:49:24.431Z,0.90
2023-05-04T08:53:26.605Z,1.00
2023-05-04T08:57:29.565Z,1.10
2023-05-04T09:01:33.338Z,1.10
2023-05-04T09:05:36.492Z,1.30
2023-05-04T09:09:38.545Z,1.50
2023-05-04T09:13:42.276Z,1.20
2023-05-04T09:17:58.516Z,1.10
2023-05-04T09:22:01.221Z,1.30
2023-05-04T09:26:03.380Z,1.10
2023-05-04T09:30:06.510Z,1.20
2023-05-04T09:34:09.578Z,0.90
2023-05-04T09:38:11.515Z,1.40
2023-05-04T09:42:18.363Z,0.90
2023-05-04T09:46:21.402Z,1.70
2023-05-04T09:50:24.902Z,1.30
2023-05-04T09:54:31.538Z,1.20
2023-05-04T09:58:33.942Z,1.20
2023-05-04T10:02:37.158Z,1.00
2023-05-04T10:06:39.823Z,1.40
2023-05-04T10:10:42.971Z,1.10
2023-05-04T10:14:46.424Z,1.40
2023-05-04T10:18:51.203Z,1.10
2023-05-04T10:23:02.244Z,0.90
2023-05-04T10:27:43.492Z,1.30
2023-05-04T10:31:45.789Z,1.30
2023-05-04T10:35:52.489Z,1.20
2023-05-04T10:39:54.858Z,0.70
2023-05-04T10:44:04.114Z,1.20
2023-05-04T10:48:09.659Z,1.40
2023-05-04T10:52:15.644Z,1.20
2023-05-04T10:56:26.058Z,1.10
2023-05-04T11:00:39.049Z,1.30
2023-05-04T11:04:41.540Z,1.30
2023-05-04T11:08:46.001Z,1.00
2023-05-04T11:12:48.583Z,1.30
2023-05-04T11:16:50.949Z,1.10
2023-05-04T11:20:53.527Z,1.60
2023-05-04T11:24:56.297Z,1.40
2023-05-04T11:28:58.416Z,1.20
2023-05-04T11:33:01.946Z,1.20
2023-05-04T11:37:06.013Z,1.10
2023-05-04T11:41:08.995Z,1.00
2023-05-04T11:45:17.709Z,1.00
2023-05-04T11:49:19.870Z,1.30
2023-05-04T11:53:22.849Z,1.30
2023-05-04T11:57:24.970Z,1.60
2023-05-04T12:01:34.797Z,1.40
2023-05-04T12:05:37.473Z,1.30
2023-05-04T12:09:49.425Z,1.20
2023-05-04T12:14:10.082Z,1.10
2023-05-04T12:18:22.584Z,1.40
2023-05-04T12:22:28.871Z,0.90
2023-05-04T12:26:30.898Z,1.10
2023-05-04T12:30:33.052Z,1.50
2023-05-04T12:34:36.969Z,1.10
2023-05-04T12:38:38.980Z,1.30
2023-05-04T12:42:41.850Z,1.20
2023-05-04T12:46:43.922Z,1.50
2023-05-04T12:50:48.152Z,1.50
2023-05-04T12:54:50.142Z,1.40
2023-05-04T12:58:52.147Z,1.30
2023-05-04T13:02:54.279Z,0.80
2023-05-04T13:06:56.307Z,1.20
2023-05-04T13:10:58.282Z,1.00
2023-05-04T13:15:00.507Z,1.00
2023-05-04T13:19:03.098Z,1.00
2023-05-04T13:23:05.206Z,1.20
2023-05-04T13:27:07.240Z,1.20
2023-05-04T13:31:09.998Z,1.30
2023-05-04T13:35:12.312Z,1.10
2023-05-04T13:39:14.323Z,1.20
2023-05-04T13:43:16.395Z,1.20
2023-05-04T13:47:18.511Z,1.40
2023-05-04T13:51:20.567Z,1.10
2023-05-04T13:55:22.708Z,1.00
2023-05-04T13:59:24.718Z,1.10
2023-05-04T14:03:31.343Z,1.30
2023-05-04T14:07:34.590Z,1.50
2023-05-04T14:11:37.013Z,1.00
2023-05-04T14:15:39.128Z,1.00
2023-05-04T14:19:41.173Z,1.30
2023-05-04T14:23:44.327Z,1.10
2023-05-04T14:27:46.321Z,1.30
2023-05-04T14:31:48.347Z,1.20
2023-05-04T14:35:50.428Z,1.30
2023-05-04T14:39:52.350Z,1.30
2023-05-04T14:43:54.452Z,1.30
2023-05-04T14:47:56.539Z,1.10
2023-05-04T14:51:58.687Z,1.20
2023-05-04T14:56:01.182Z,1.20
2023-05-04T15:00:09.100Z,1.00
2023-05-04T15:04:13.128Z,1.00
2023-05-04T15:08:15.133Z,1.20
2023-05-04T15:12:17.260Z,1.00
2023-05-04T15:16:19.404Z,1.40
2023-05-04T15:20:21.827Z,1.10
2023-05-04T15:24:23.788Z,0.80
2023-05-04T15:28:25.839Z,1.10
2023-05-04T15:32:27.906Z,1.40
2023-05-04T15:36:33.349Z,1.40
2023-05-04T15:40:35.892Z,1.20
2023-05-04T15:44:37.860Z,1.00
2023-05-04T15:48:39.948Z,0.90
2023-05-04T15:52:42.072Z,1.00
2023-05-04T15:56:44.508Z,1.40
2023-05-04T16:00:46.715Z,1.60
2023-05-04T16:04:48.752Z,1.30
2023-05-04T16:08:50.925Z,1.30
2023-05-04T16:12:53.154Z,1.10
2023-05-04T16:16:55.422Z,0.90
2023-05-04T16:20:57.510Z,1.20
2023-05-04T16:25:00.947Z,1.70
2023-05-04T16:29:03.106Z,1.50
2023-05-04T16:33:05.389Z,1.30
2023-05-04T16:37:09.696Z,1.40
2023-05-04T16:41:13.311Z,1.60
2023-05-04T16:45:15.424Z,1.10
2023-05-04T16:49:18.187Z,1.20
2023-05-04T16:53:20.552Z,1.30
2023-05-04T16:57:22.675Z,1.50
2023-05-04T17:01:24.666Z,2.20
2023-05-04T17:05:27.195Z,1.20
2023-05-04T17:09:29.145Z,2.30
2023-05-04T17:13:31.240Z,3.00
2023-05-04T17:17:33.257Z,2.50
2023-05-04T17:21:36.216Z,3.60
2023-05-04T17:25:38.642Z,2.90
2023-05-04T17:29:40.840Z,2.70
2023-05-04T17:33:42.955Z,2.50
2023-05-04T17:37:44.928Z,3.00
2023-05-04T17:41:50.587Z,1.70
2023-05-04T17:45:54.925Z,2.30
2023-05-04T17:49:57.847Z,2.60
2023-05-04T17:54:00.117Z,2.80
2023-05-04T17:58:02.199Z,2.20
2023-05-04T18:02:04.333Z,3.00
2023-05-04T18:06:08.066Z,3.50
2023-05-04T18:10:10.701Z,14.10
2023-05-04T18:14:12.911Z,11.10
2023-05-04T18:18:14.956Z,6.50
2023-05-04T18:22:17.500Z,5.40
2023-05-04T18:26:21.882Z,5.50
2023-05-04T18:30:23.921Z,4.80
2023-05-04T18:34:25.855Z,4.10
2023-05-04T18:38:28.166Z,4.90
2023-05-04T18:42:30.285Z,5.00
2023-05-04T18:46:33.553Z,6.70
2023-05-04T18:50:35.753Z,6.50
2023-05-04T18:54:37.720Z,8.40
2023-05-04T18:58:39.950Z,6.40
2023-05-04T19:02:41.882Z,5.60
2023-05-04T19:06:43.896Z,5.70
2023-05-04T19:10:46.320Z,6.80
2023-05-04T19:14:49.312Z,6.00
2023-05-04T19:18:51.226Z,6.40
2023-05-04T19:22:55.367Z,6.80
2023-05-04T19:26:58.998Z,7.00
2023-05-04T19:31:01.093Z,8.40
2023-05-04T19:35:03.269Z,8.10
2023-05-04T19:39:05.348Z,8.70
2023-05-04T19:43:07.511Z,8.70
2023-05-04T19:47:09.634Z,9.40
2023-05-04T19:51:11.799Z,8.70
2023-05-04T19:55:16.227Z,9.50
2023-05-04T19:59:19.562Z,11.20
2023-05-04T20:03:21.658Z,9.90
2023-05-04T20:07:24.249Z,11.00
2023-05-04T20:11:26.523Z,10.90
2023-05-04T20:15:28.544Z,11.40
2023-05-04T20:19:30.628Z,11.30
2023-05-04T20:23:32.623Z,11.40
2023-05-04T20:27:34.639Z,12.60
2023-05-04T20:31:36.704Z,11.60
2023-05-04T20:35:43.700Z,11.70
2023-05-04T20:39:45.616Z,12.40
2023-05-04T20:43:47.526Z,13.30
2023-05-04T20:47:49.463Z,13.10
2023-05-04T20:51:51.462Z,13.40
2023-05-04T20:55:53.492Z,12.40
2023-05-04T20:59:55.966Z,13.10
2023-05-04T21:03:58.002Z,13.80
2023-05-04T21:08:01.037Z,10.10
2023-05-04T21:12:03.509Z,10.90
2023-05-04T21:16:05.914Z,11.50
2023-05-04T21:20:08.932Z,16.90
2023-05-04T21:24:12.798Z,13.10
2023-05-04T21:28:14.764Z,11.80
2023-05-04T21:32:16.797Z,14.00
2023-05-04T21:36:18.780Z,13.90
2023-05-04T21:40:20.820Z,11.90
2023-05-04T21:44:22.899Z,12.90
2023-05-04T21:48:25.544Z,12.50
2023-05-04T21:52:27.516Z,13.30
2023-05-04T21:56:29.614Z,10.70
2023-05-04T22:00:31.574Z,10.50
2023-05-04T22:04:33.485Z,11.10
2023-05-04T22:08:35.409Z,10.90
2023-05-04T22:12:37.387Z,12.10
2023-05-04T22:16:39.383Z,11.90
2023-05-04T22:20:43.008Z,10.90
2023-05-04T22:24:45.087Z,11.30
2023-05-04T22:28:47.018Z,11.40
2023-05-04T22:32:48.978Z,10.40
2023-05-04T22:36:50.953Z,9.70
2023-05-04T22:40:52.849Z,9.40
2023-05-04T22:44:54.755Z,9.10
2023-05-04T22:48:57.122Z,10.60
2023-05-04T22:52:59.311Z,12.80
2023-05-04T22:57:01.677Z,9.90
2023-05-04T23:01:08.494Z,9.70
2023-05-04T23:05:10.473Z,8.90
2023-05-04T23:09:13.749Z,9.70
2023-05-04T23:13:15.760Z,8.80
2023-05-04T23:17:18.690Z,8.50
2023-05-04T23:21:21.014Z,8.80
2023-05-04T23:25:22.973Z,8.20
2023-05-04T23:29:25.011Z,7.60
2023-05-04T23:33:26.963Z,7.70
2023-05-04T23:37:31.726Z,8.60
2023-05-04T23:41:33.711Z,7.50
2023-05-04T23:45:35.626Z,7.50
2023-05-04T23:49:37.686Z,6.80
2023-05-04T23:53:41.004Z,6.80
2023-05-04T23:57:43.591Z,6.00
